createdAt,value
2018-11-30T00:00:32.178Z,0.00
2018-11-30T00:01:32.144Z,0.00
2018-11-30T00:02:32.108Z,0.00
2018-11-30T00:03:32.073Z,0.00
2018-11-30T00:04:32.038Z,0.00
2018-11-30T00:05:32.003Z,0.00
2018-11-30T00:06:31.969Z,0.00
2018-11-30T00:07:31.932Z,0.00
2018-11-30T00:08:31.899Z,0.00
2018-11-30T00:09:31.864Z,0.00
2018-11-30T00:10:31.834Z,0.00
2018-11-30T00:11:31.795Z,0.00
2018-11-30T00:12:31.761Z,0.00
2018-11-30T00:13:31.726Z,0.00
2018-11-30T00:14:31.690Z,0.00
2018-11-30T00:15:31.655Z,0.00
2018-11-30T00:16:31.649Z,0.00
2018-11-30T00:17:31.586Z,0.00
2018-11-30T00:18:31.551Z,0.00
2018-11-30T00:19:31.517Z,0.00
2018-11-30T00:20:31.481Z,0.00
2018-11-30T00:21:31.448Z,0.00
2018-11-30T00:22:31.412Z,0.00
2018-11-30T00:23:31.379Z,0.00
2018-11-30T00:24:31.342Z,0.00
2018-11-30T00:25:31.308Z,0.00
2018-11-30T00:26:31.274Z,0.00
2018-11-30T00:27:31.237Z,0.00
2018-11-30T00:28:31.202Z,0.00
2018-11-30T00:29:31.169Z,0.00
2018-11-30T00:30:31.135Z,0.00
2018-11-30T00:31:31.099Z,0.00
2018-11-30T00:32:31.066Z,0.00
2018-11-30T00:33:31.029Z,0.00
2018-11-30T00:34:30.996Z,0.00
2018-11-30T00:35:30.959Z,0.00
2018-11-30T00:36:30.925Z,0.00
2018-11-30T00:37:30.890Z,0.00
2018-11-30T00:38:30.855Z,0.00
2018-11-30T00:39:30.820Z,0.00
2018-11-30T00:40:30.784Z,0.00
2018-11-30T00:41:30.793Z,0.00
2018-11-30T00:42:30.716Z,0.00
2018-11-30T00:43:30.680Z,0.00
2018-11-30T00:44:30.644Z,0.00
2018-11-30T00:45:30.610Z,0.00
2018-11-30T00:46:30.575Z,0.00
2018-11-30T00:47:30.541Z,0.00
2018-11-30T00:48:30.505Z,0.00
2018-11-30T00:49:30.470Z,0.00
2018-11-30T00:50:30.737Z,0.00
2018-11-30T00:51:30.401Z,0.00
2018-11-30T00:52:30.367Z,0.00
2018-11-30T00:53:30.330Z,0.00
2018-11-30T00:54:30.296Z,0.00
2018-11-30T00:55:30.262Z,0.00
2018-11-30T00:56:30.226Z,0.00
2018-11-30T00:57:30.192Z,0.00
2018-11-30T00:58:30.163Z,0.00
2018-11-30T00:59:30.121Z,0.00
2018-11-30T01:00:30.124Z,0.00
2018-11-30T01:01:30.052Z,0.00
2018-11-30T01:02:30.019Z,0.00
2018-11-30T01:03:29.983Z,0.00
2018-11-30T01:04:29.947Z,0.00
2018-11-30T01:05:29.914Z,0.00
2018-11-30T01:06:29.880Z,0.00
2018-11-30T01:07:29.844Z,0.00
2018-11-30T01:08:29.809Z,0.00
2018-11-30T01:09:29.773Z,0.00
2018-11-30T01:10:29.739Z,0.00
2018-11-30T01:11:29.703Z,0.00
2018-11-30T01:12:29.670Z,0.00
2018-11-30T01:13:29.633Z,0.00
2018-11-30T01:14:29.601Z,0.00
2018-11-30T01:15:29.564Z,0.00
2018-11-30T01:16:29.529Z,0.00
2018-11-30T01:17:29.497Z,0.00
2018-11-30T01:18:29.459Z,0.00
2018-11-30T01:19:29.424Z,0.00
2018-11-30T01:20:29.390Z,0.00
2018-11-30T01:21:29.355Z,0.00
2018-11-30T01:22:29.321Z,0.00
2018-11-30T01:23:29.284Z,0.00
2018-11-30T01:24:29.250Z,0.00
2018-11-30T01:25:29.217Z,0.00
2018-11-30T01:26:29.182Z,0.00
2018-11-30T01:27:29.147Z,0.00
2018-11-30T01:28:29.113Z,0.00
2018-11-30T01:29:29.077Z,0.00
2018-11-30T01:30:29.043Z,0.00
2018-11-30T01:31:29.006Z,0.00
2018-11-30T01:32:28.971Z,0.00
2018-11-30T01:33:28.938Z,0.00
2018-11-30T01:34:28.902Z,0.00
2018-11-30T01:35:28.868Z,0.00
2018-11-30T01:36:28.833Z,0.00
2018-11-30T01:37:28.799Z,0.00
2018-11-30T01:38:28.765Z,0.00
2018-11-30T01:39:28.727Z,0.00
2018-11-30T01:40:28.694Z,0.00
2018-11-30T01:41:28.657Z,0.00
2018-11-30T01:42:28.624Z,0.00
2018-11-30T01:43:28.589Z,0.00
2018-11-30T01:44:28.554Z,0.00
2018-11-30T01:45:28.518Z,0.00
2018-11-30T01:46:28.484Z,0.00
2018-11-30T01:47:28.448Z,0.00
2018-11-30T01:48:28.414Z,0.00
2018-11-30T01:49:28.381Z,0.00
2018-11-30T01:50:28.346Z,0.00
2018-11-30T01:51:28.309Z,0.00
2018-11-30T01:52:28.275Z,0.00
2018-11-30T01:53:28.241Z,0.00
2018-11-30T01:54:28.205Z,0.00
2018-11-30T01:55:28.170Z,0.00
2018-11-30T01:56:28.135Z,0.00
2018-11-30T01:57:28.100Z,0.00
2018-11-30T01:58:28.065Z,0.00
2018-11-30T01:59:28.030Z,0.00
2018-11-30T02:00:27.997Z,0.00
2018-11-30T02:01:27.962Z,0.00
2018-11-30T02:02:27.926Z,0.00
2018-11-30T02:03:27.892Z,0.00
2018-11-30T02:04:27.857Z,0.00
2018-11-30T02:05:27.821Z,0.00
2018-11-30T02:06:27.787Z,0.00
2018-11-30T02:07:27.754Z,0.00
2018-11-30T02:08:27.717Z,0.00
2018-11-30T02:09:27.685Z,0.00
2018-11-30T02:10:27.653Z,0.00
2018-11-30T02:11:27.612Z,0.00
2018-11-30T02:12:27.577Z,0.00
2018-11-30T02:13:27.543Z,0.00
2018-11-30T02:14:27.509Z,0.00
2018-11-30T02:15:27.474Z,0.00
2018-11-30T02:16:27.439Z,0.00
2018-11-30T02:17:27.404Z,0.00
2018-11-30T02:18:27.370Z,0.00
2018-11-30T02:19:27.334Z,0.00
2018-11-30T02:20:27.300Z,0.00
2018-11-30T02:21:27.265Z,0.00
2018-11-30T02:22:27.231Z,0.00
2018-11-30T02:23:27.196Z,0.00
2018-11-30T02:24:27.161Z,0.00
2018-11-30T02:25:27.128Z,0.00
2018-11-30T02:26:27.092Z,0.00
2018-11-30T02:27:27.057Z,0.00
2018-11-30T02:28:27.022Z,0.00
2018-11-30T02:29:26.988Z,0.00
2018-11-30T02:30:26.954Z,0.00
2018-11-30T02:31:26.920Z,0.00
2018-11-30T02:32:26.884Z,0.00
2018-11-30T02:33:26.850Z,0.00
2018-11-30T02:34:26.818Z,0.00
2018-11-30T02:35:26.779Z,0.00
2018-11-30T02:36:26.748Z,0.00
2018-11-30T02:37:26.712Z,0.00
2018-11-30T02:38:26.676Z,0.00
2018-11-30T02:39:26.642Z,0.00
2018-11-30T02:40:26.608Z,0.00
2018-11-30T02:41:26.573Z,0.00
2018-11-30T02:42:26.537Z,0.00
2018-11-30T02:43:26.504Z,0.00
2018-11-30T02:44:26.468Z,0.00
2018-11-30T02:45:26.434Z,0.00
2018-11-30T02:46:26.400Z,0.00
2018-11-30T02:47:26.365Z,0.00
2018-11-30T02:48:26.330Z,0.00
2018-11-30T02:49:26.300Z,0.00
2018-11-30T02:50:26.260Z,0.00
2018-11-30T02:51:26.226Z,0.00
2018-11-30T02:52:26.195Z,0.00
2018-11-30T02:53:26.157Z,0.00
2018-11-30T02:54:26.123Z,0.00
2018-11-30T02:55:26.087Z,0.00
2018-11-30T02:56:26.057Z,0.00
2018-11-30T02:57:26.017Z,0.00
2018-11-30T02:58:25.986Z,0.00
2018-11-30T02:59:25.949Z,0.00
2018-11-30T03:00:25.919Z,0.00
2018-11-30T03:01:25.880Z,0.00
2018-11-30T03:02:25.847Z,0.00
2018-11-30T03:03:25.812Z,0.00
2018-11-30T03:04:25.778Z,0.00
2018-11-30T03:05:25.744Z,0.00
2018-11-30T03:06:25.707Z,0.00
2018-11-30T03:07:25.672Z,0.00
2018-11-30T03:08:25.637Z,0.00
2018-11-30T03:09:25.602Z,0.00
2018-11-30T03:10:25.569Z,0.00
2018-11-30T03:11:25.533Z,0.00
2018-11-30T03:12:25.498Z,0.00
2018-11-30T03:13:25.465Z,0.00
2018-11-30T03:14:25.432Z,0.00
2018-11-30T03:15:25.398Z,0.00
2018-11-30T03:16:25.363Z,0.00
2018-11-30T03:17:25.325Z,0.00
2018-11-30T03:18:25.290Z,0.00
2018-11-30T03:19:25.257Z,0.00
2018-11-30T03:20:25.220Z,0.00
2018-11-30T03:21:25.200Z,0.00
2018-11-30T03:22:25.153Z,0.00
2018-11-30T03:23:25.115Z,0.00
2018-11-30T03:24:25.083Z,0.00
2018-11-30T03:25:25.049Z,0.00
2018-11-30T03:26:25.014Z,0.00
2018-11-30T03:27:24.977Z,0.00
2018-11-30T03:28:24.946Z,0.00
2018-11-30T03:29:24.910Z,0.00
2018-11-30T03:30:24.875Z,0.00
2018-11-30T03:31:24.843Z,0.00
2018-11-30T03:32:24.805Z,0.00
2018-11-30T03:33:24.770Z,0.00
2018-11-30T03:34:24.735Z,0.00
2018-11-30T03:35:24.709Z,0.00
2018-11-30T03:36:24.667Z,0.00
2018-11-30T03:37:24.630Z,0.00
2018-11-30T03:38:24.596Z,0.00
2018-11-30T03:39:24.561Z,0.00
2018-11-30T03:40:24.527Z,0.00
2018-11-30T03:41:24.492Z,0.00
2018-11-30T03:42:24.457Z,0.00
2018-11-30T03:43:24.422Z,0.00
2018-11-30T03:44:24.387Z,0.00
2018-11-30T03:45:24.357Z,0.00
2018-11-30T03:46:24.327Z,0.00
2018-11-30T03:47:24.282Z,0.00
2018-11-30T03:48:24.248Z,0.00
2018-11-30T03:49:24.213Z,0.00
2018-11-30T03:50:24.177Z,0.00
2018-11-30T03:51:24.141Z,0.00
2018-11-30T03:52:24.107Z,0.00
2018-11-30T03:53:24.075Z,0.00
2018-11-30T03:54:24.039Z,0.00
2018-11-30T03:55:24.004Z,0.00
2018-11-30T03:56:23.971Z,0.00
2018-11-30T03:57:23.935Z,0.00
2018-11-30T03:58:23.899Z,0.00
2018-11-30T03:59:23.864Z,0.00
2018-11-30T04:00:23.876Z,0.00
2018-11-30T04:01:23.798Z,0.00
2018-11-30T04:02:23.762Z,0.00
2018-11-30T04:03:23.724Z,0.00
2018-11-30T04:04:23.691Z,0.00
2018-11-30T04:05:23.654Z,0.00
2018-11-30T04:06:23.620Z,0.00
2018-11-30T04:07:23.585Z,0.00
2018-11-30T04:08:23.549Z,0.00
2018-11-30T04:09:23.516Z,0.00
2018-11-30T04:10:23.481Z,0.00
2018-11-30T04:11:23.459Z,0.00
2018-11-30T04:12:23.418Z,0.00
2018-11-30T04:13:23.377Z,0.00
2018-11-30T04:14:23.343Z,0.00
2018-11-30T04:15:23.306Z,0.00
2018-11-30T04:16:23.273Z,0.00
2018-11-30T04:17:23.237Z,0.00
2018-11-30T04:18:23.203Z,0.00
2018-11-30T04:19:23.167Z,0.00
2018-11-30T04:20:23.132Z,0.00
2018-11-30T04:21:23.098Z,0.00
2018-11-30T04:22:23.064Z,0.00
2018-11-30T04:23:23.028Z,0.00
2018-11-30T04:24:22.993Z,0.00
2018-11-30T04:25:22.958Z,0.00
2018-11-30T04:26:22.926Z,0.00
2018-11-30T04:27:22.890Z,0.00
2018-11-30T04:28:22.857Z,0.00
2018-11-30T04:29:22.819Z,0.00
2018-11-30T04:30:22.791Z,0.00
2018-11-30T04:31:22.750Z,0.00
2018-11-30T04:32:22.714Z,0.00
2018-11-30T04:33:22.679Z,0.00
2018-11-30T04:34:22.644Z,0.00
2018-11-30T04:35:22.624Z,0.00
2018-11-30T04:36:22.575Z,0.00
2018-11-30T04:37:22.539Z,0.00
2018-11-30T04:38:22.505Z,0.00
2018-11-30T04:39:23.361Z,0.00
2018-11-30T04:40:22.437Z,0.00
2018-11-30T04:41:22.401Z,0.00
2018-11-30T04:42:22.366Z,0.00
2018-11-30T04:43:22.330Z,0.00
2018-11-30T04:44:22.295Z,0.00
2018-11-30T04:45:22.261Z,0.00
2018-11-30T04:46:22.589Z,0.00
2018-11-30T04:47:22.189Z,0.00
2018-11-30T04:48:22.155Z,0.00
2018-11-30T04:49:22.121Z,0.00
2018-11-30T04:50:22.089Z,0.00
2018-11-30T04:51:22.050Z,0.00
2018-11-30T04:52:22.015Z,0.00
2018-11-30T04:53:21.984Z,0.00
2018-11-30T04:54:21.945Z,0.00
2018-11-30T04:55:21.910Z,0.00
2018-11-30T04:56:21.877Z,0.00
2018-11-30T04:57:21.839Z,0.00
2018-11-30T04:58:21.807Z,0.00
2018-11-30T04:59:21.771Z,0.00
2018-11-30T05:00:21.735Z,0.00
2018-11-30T05:01:21.703Z,0.00
2018-11-30T05:02:21.666Z,0.00
2018-11-30T05:03:21.637Z,0.00
2018-11-30T05:04:21.602Z,0.00
2018-11-30T05:05:21.561Z,0.00
2018-11-30T05:06:21.530Z,0.00
2018-11-30T05:07:21.492Z,0.00
2018-11-30T05:08:21.458Z,0.00
2018-11-30T05:09:21.423Z,0.00
2018-11-30T05:10:21.390Z,0.00
2018-11-30T05:11:21.352Z,0.00
2018-11-30T05:12:21.317Z,0.00
2018-11-30T05:13:21.286Z,0.00
2018-11-30T05:14:21.250Z,0.00
2018-11-30T05:15:21.212Z,0.00
2018-11-30T05:16:21.179Z,0.00
2018-11-30T05:17:21.144Z,0.00
2018-11-30T05:18:21.109Z,0.00
2018-11-30T05:19:21.073Z,0.00
2018-11-30T05:20:21.039Z,0.00
2018-11-30T05:21:21.003Z,0.00
2018-11-30T05:22:21.005Z,0.00
2018-11-30T05:23:20.932Z,0.00
2018-11-30T05:24:20.898Z,0.00
2018-11-30T05:25:20.876Z,0.00
2018-11-30T05:26:20.833Z,0.00
2018-11-30T05:27:20.795Z,0.00
2018-11-30T05:28:20.760Z,0.00
2018-11-30T05:29:20.724Z,0.00
2018-11-30T05:30:20.689Z,0.00
2018-11-30T05:31:20.656Z,0.00
2018-11-30T05:32:20.619Z,0.00
2018-11-30T05:33:20.618Z,0.00
2018-11-30T05:34:20.552Z,0.00
2018-11-30T05:35:20.515Z,0.00
2018-11-30T05:36:20.481Z,0.00
2018-11-30T05:37:20.446Z,0.00
2018-11-30T05:38:20.411Z,0.00
2018-11-30T05:39:20.376Z,0.00
2018-11-30T05:40:20.341Z,0.00
2018-11-30T05:41:20.308Z,0.00
2018-11-30T05:42:20.272Z,0.00
2018-11-30T05:43:20.236Z,0.00
2018-11-30T05:44:20.203Z,0.00
2018-11-30T05:45:20.169Z,0.00
2018-11-30T05:46:20.134Z,0.00
2018-11-30T05:47:20.099Z,0.00
2018-11-30T05:48:20.063Z,0.00
2018-11-30T05:49:20.029Z,0.00
2018-11-30T05:50:19.995Z,0.00
2018-11-30T05:51:19.960Z,0.00
2018-11-30T05:52:19.927Z,0.00
2018-11-30T05:53:19.891Z,0.00
2018-11-30T05:54:19.858Z,0.00
2018-11-30T05:55:19.819Z,0.00
2018-11-30T05:56:19.787Z,0.00
2018-11-30T05:57:19.751Z,0.00
2018-11-30T05:58:19.719Z,0.00
2018-11-30T05:59:19.690Z,0.00
2018-11-30T06:00:19.648Z,0.00
2018-11-30T06:01:19.614Z,0.00
2018-11-30T06:02:19.580Z,0.00
2018-11-30T06:03:19.544Z,0.00
2018-11-30T06:04:19.509Z,0.00
2018-11-30T06:05:19.476Z,0.00
2018-11-30T06:06:19.442Z,0.00
2018-11-30T06:07:19.404Z,0.00
2018-11-30T06:08:19.371Z,0.00
2018-11-30T06:09:19.337Z,0.00
2018-11-30T06:10:19.301Z,0.00
2018-11-30T06:11:19.268Z,0.00
2018-11-30T06:12:19.232Z,0.00
2018-11-30T06:13:19.636Z,0.00
2018-11-30T06:14:19.164Z,0.00
2018-11-30T06:15:19.130Z,0.00
2018-11-30T06:16:19.097Z,0.00
2018-11-30T06:17:19.061Z,0.00
2018-11-30T06:18:19.027Z,0.00
2018-11-30T06:19:18.989Z,0.00
2018-11-30T06:20:18.961Z,0.00
2018-11-30T06:21:18.923Z,0.00
2018-11-30T06:22:18.888Z,0.00
2018-11-30T06:23:18.854Z,0.00
2018-11-30T06:24:18.819Z,0.00
2018-11-30T06:25:18.785Z,0.00
2018-11-30T06:26:18.751Z,0.00
2018-11-30T06:27:18.715Z,0.00
2018-11-30T06:28:18.682Z,0.00
2018-11-30T06:29:18.647Z,0.00
2018-11-30T06:30:18.613Z,0.00
2018-11-30T06:31:18.577Z,0.00
2018-11-30T06:32:18.544Z,0.00
2018-11-30T06:33:18.510Z,0.00
2018-11-30T06:34:18.476Z,0.00
2018-11-30T06:35:18.438Z,0.00
2018-11-30T06:36:18.406Z,0.00
2018-11-30T06:37:18.371Z,0.00
2018-11-30T06:38:18.336Z,0.00
2018-11-30T06:39:18.301Z,0.00
2018-11-30T06:40:18.271Z,0.00
2018-11-30T06:41:18.234Z,0.00
2018-11-30T06:42:18.199Z,0.00
2018-11-30T06:43:18.166Z,0.00
2018-11-30T06:44:18.129Z,0.00
2018-11-30T06:45:18.098Z,0.00
2018-11-30T06:46:18.063Z,0.00
2018-11-30T06:47:18.030Z,0.00
2018-11-30T06:48:17.992Z,0.00
2018-11-30T06:49:17.959Z,0.00
2018-11-30T06:50:17.928Z,0.00
2018-11-30T06:51:17.890Z,0.00
2018-11-30T06:52:17.857Z,0.00
2018-11-30T06:53:17.828Z,0.00
2018-11-30T06:54:17.787Z,0.00
2018-11-30T06:55:17.755Z,0.00
2018-11-30T06:56:17.719Z,0.00
2018-11-30T06:57:17.683Z,0.00
2018-11-30T06:58:17.649Z,0.00
2018-11-30T06:59:17.617Z,0.00
2018-11-30T07:00:17.582Z,0.00
2018-11-30T07:01:17.547Z,0.00
2018-11-30T07:02:17.516Z,5.63
2018-11-30T07:03:17.479Z,5.63
2018-11-30T07:04:17.444Z,5.63
2018-11-30T07:05:17.412Z,5.63
2018-11-30T07:06:17.376Z,5.63
2018-11-30T07:07:17.341Z,5.63
2018-11-30T07:08:17.307Z,5.63
2018-11-30T07:09:17.272Z,11.25
2018-11-30T07:10:17.239Z,11.25
2018-11-30T07:11:17.204Z,11.25
2018-11-30T07:12:17.171Z,11.25
2018-11-30T07:13:17.136Z,11.25
2018-11-30T07:14:17.101Z,11.25
2018-11-30T07:15:17.066Z,11.25
2018-11-30T07:16:17.033Z,11.25
2018-11-30T07:17:16.997Z,11.25
2018-11-30T07:18:16.963Z,11.25
2018-11-30T07:19:16.928Z,11.25
2018-11-30T07:20:16.895Z,11.25
2018-11-30T07:21:16.859Z,11.25
2018-11-30T07:22:16.828Z,11.25
2018-11-30T07:23:16.790Z,11.25
2018-11-30T07:24:16.782Z,16.88
2018-11-30T07:25:16.722Z,16.88
2018-11-30T07:26:16.689Z,16.88
2018-11-30T07:27:16.653Z,16.88
2018-11-30T07:28:16.618Z,22.50
2018-11-30T07:29:16.584Z,22.50
2018-11-30T07:30:16.551Z,22.50
2018-11-30T07:31:16.516Z,28.13
2018-11-30T07:32:16.482Z,33.75
2018-11-30T07:33:16.447Z,33.75
2018-11-30T07:34:16.419Z,33.75
2018-11-30T07:35:16.388Z,39.38
2018-11-30T07:36:16.343Z,39.38
2018-11-30T07:37:16.311Z,39.38
2018-11-30T07:38:16.276Z,33.75
2018-11-30T07:39:16.241Z,33.75
2018-11-30T07:40:16.208Z,28.13
2018-11-30T07:41:16.174Z,28.13
2018-11-30T07:42:16.138Z,28.13
2018-11-30T07:43:16.103Z,33.75
2018-11-30T07:44:16.070Z,28.13
2018-11-30T07:45:16.036Z,28.13
2018-11-30T07:46:16.003Z,22.50
2018-11-30T07:47:15.967Z,22.50
2018-11-30T07:48:15.933Z,22.50
2018-11-30T07:49:15.900Z,28.13
2018-11-30T07:50:15.864Z,33.75
2018-11-30T07:51:15.830Z,39.38
2018-11-30T07:52:15.833Z,39.38
2018-11-30T07:53:15.763Z,39.38
2018-11-30T07:54:15.726Z,45.00
2018-11-30T07:55:15.692Z,45.00
2018-11-30T07:56:15.658Z,45.00
2018-11-30T07:57:15.625Z,45.00
2018-11-30T07:58:15.593Z,45.00
2018-11-30T07:59:15.557Z,39.38
2018-11-30T08:00:15.521Z,39.38
2018-11-30T08:01:15.488Z,45.00
2018-11-30T08:02:15.453Z,50.63
2018-11-30T08:03:15.418Z,56.25
2018-11-30T08:04:15.386Z,67.50
2018-11-30T08:05:15.351Z,67.50
2018-11-30T08:06:15.318Z,61.88
2018-11-30T08:07:15.281Z,50.63
2018-11-30T08:08:15.248Z,50.63
2018-11-30T08:09:15.213Z,50.63
2018-11-30T08:10:15.180Z,45.00
2018-11-30T08:11:15.145Z,45.00
2018-11-30T08:12:15.111Z,50.63
2018-11-30T08:13:15.078Z,50.63
2018-11-30T08:14:15.041Z,50.63
2018-11-30T08:15:15.022Z,50.63
2018-11-30T08:16:14.974Z,56.25
2018-11-30T08:17:14.939Z,61.88
2018-11-30T08:18:14.905Z,61.88
2018-11-30T08:19:14.871Z,61.88
2018-11-30T08:20:15.897Z,67.50
2018-11-30T08:21:14.804Z,73.13
2018-11-30T08:22:14.769Z,78.75
2018-11-30T08:23:14.735Z,78.75
2018-11-30T08:24:14.700Z,78.75
2018-11-30T08:25:14.666Z,78.75
2018-11-30T08:26:14.634Z,78.75
2018-11-30T08:27:14.598Z,84.38
2018-11-30T08:28:14.563Z,95.63
2018-11-30T08:29:14.530Z,95.63
2018-11-30T08:30:14.496Z,101.25
2018-11-30T08:31:14.462Z,101.25
2018-11-30T08:32:14.426Z,101.25
2018-11-30T08:33:14.393Z,101.25
2018-11-30T08:34:14.359Z,106.88
2018-11-30T08:35:14.330Z,106.88
2018-11-30T08:36:14.292Z,106.88
2018-11-30T08:37:14.255Z,101.25
2018-11-30T08:38:14.221Z,101.25
2018-11-30T08:39:14.186Z,106.88
2018-11-30T08:40:14.157Z,106.88
2018-11-30T08:41:14.119Z,106.88
2018-11-30T08:42:14.083Z,106.88
2018-11-30T08:43:14.048Z,106.88
2018-11-30T08:44:14.016Z,106.88
2018-11-30T08:45:13.982Z,112.50
2018-11-30T08:46:13.947Z,106.88
2018-11-30T08:47:13.912Z,106.88
2018-11-30T08:48:13.878Z,101.25
2018-11-30T08:49:13.844Z,106.88
2018-11-30T08:50:13.809Z,118.13
2018-11-30T08:51:13.776Z,118.13
2018-11-30T08:52:13.741Z,123.75
2018-11-30T08:53:13.709Z,118.13
2018-11-30T08:54:13.672Z,118.13
2018-11-30T08:55:13.635Z,118.13
2018-11-30T08:56:13.602Z,118.13
2018-11-30T08:57:13.568Z,118.13
2018-11-30T08:58:13.533Z,112.50
2018-11-30T08:59:13.497Z,112.50
2018-11-30T09:00:13.464Z,118.13
2018-11-30T09:01:13.430Z,123.75
2018-11-30T09:02:13.395Z,123.75
2018-11-30T09:03:13.359Z,135.00
2018-11-30T09:04:13.325Z,140.63
2018-11-30T09:05:13.291Z,146.25
2018-11-30T09:06:13.258Z,146.25
2018-11-30T09:07:13.221Z,151.88
2018-11-30T09:08:13.185Z,151.88
2018-11-30T09:09:13.434Z,151.88
2018-11-30T09:10:13.145Z,151.88
2018-11-30T09:11:13.093Z,151.88
2018-11-30T09:12:13.052Z,151.88
2018-11-30T09:13:13.023Z,151.88
2018-11-30T09:14:12.980Z,157.50
2018-11-30T09:15:12.946Z,163.13
2018-11-30T09:16:12.910Z,168.75
2018-11-30T09:17:12.875Z,180.00
2018-11-30T09:18:12.943Z,185.63
2018-11-30T09:19:12.805Z,191.25
2018-11-30T09:20:17.519Z,196.88
2018-11-30T09:21:12.748Z,202.50
2018-11-30T09:22:12.710Z,213.75
2018-11-30T09:23:12.667Z,208.13
2018-11-30T09:24:12.631Z,208.13
2018-11-30T09:25:12.598Z,208.13
2018-11-30T09:26:12.564Z,202.50
2018-11-30T09:27:12.528Z,191.25
2018-11-30T09:28:12.495Z,180.00
2018-11-30T09:29:12.462Z,163.13
2018-11-30T09:30:12.426Z,151.88
2018-11-30T09:31:12.390Z,140.63
2018-11-30T09:32:12.356Z,135.00
2018-11-30T09:33:12.322Z,140.63
2018-11-30T09:34:12.289Z,135.00
2018-11-30T09:35:12.252Z,140.63
2018-11-30T09:36:12.220Z,146.25
2018-11-30T09:37:12.183Z,151.88
2018-11-30T09:38:12.149Z,157.50
2018-11-30T09:39:12.113Z,157.50
2018-11-30T09:40:12.079Z,163.13
2018-11-30T09:41:12.044Z,163.13
2018-11-30T09:42:12.010Z,163.13
2018-11-30T09:43:11.976Z,157.50
2018-11-30T09:44:11.941Z,157.50
2018-11-30T09:45:11.905Z,163.13
2018-11-30T09:46:11.871Z,168.75
2018-11-30T09:47:11.835Z,174.38
2018-11-30T09:48:11.800Z,185.63
2018-11-30T09:49:11.768Z,191.25
2018-11-30T09:50:11.731Z,191.25
2018-11-30T09:51:11.694Z,202.50
2018-11-30T09:52:11.664Z,202.50
2018-11-30T09:53:11.625Z,219.38
2018-11-30T09:54:11.591Z,230.63
2018-11-30T09:55:11.555Z,247.50
2018-11-30T09:56:11.521Z,258.75
2018-11-30T09:57:11.487Z,270.00
2018-11-30T09:58:11.452Z,275.63
2018-11-30T09:59:11.416Z,281.25
2018-11-30T10:00:11.383Z,286.88
2018-11-30T10:01:11.348Z,292.50
2018-11-30T10:02:11.312Z,303.75
2018-11-30T10:03:11.279Z,309.38
2018-11-30T10:04:11.242Z,309.38
2018-11-30T10:05:11.208Z,309.38
2018-11-30T10:06:11.173Z,303.75
2018-11-30T10:07:11.137Z,292.50
2018-11-30T10:08:11.105Z,286.88
2018-11-30T10:09:11.069Z,281.25
2018-11-30T10:10:11.035Z,275.63
2018-11-30T10:11:10.999Z,270.00
2018-11-30T10:12:10.964Z,270.00
2018-11-30T10:13:10.931Z,270.00
2018-11-30T10:14:10.895Z,270.00
2018-11-30T10:15:10.861Z,264.38
2018-11-30T10:16:10.824Z,264.38
2018-11-30T10:17:10.791Z,264.38
2018-11-30T10:18:10.758Z,275.63
2018-11-30T10:19:10.721Z,275.63
2018-11-30T10:20:10.687Z,275.63
2018-11-30T10:21:10.652Z,275.63
2018-11-30T10:22:10.620Z,275.63
2018-11-30T10:23:10.584Z,270.00
2018-11-30T10:24:10.548Z,264.38
2018-11-30T10:25:10.513Z,253.13
2018-11-30T10:26:10.480Z,247.50
2018-11-30T10:27:10.445Z,241.88
2018-11-30T10:28:10.410Z,241.88
2018-11-30T10:29:10.375Z,241.88
2018-11-30T10:30:10.341Z,241.88
2018-11-30T10:31:10.304Z,236.25
2018-11-30T10:32:10.271Z,236.25
2018-11-30T10:33:10.236Z,236.25
2018-11-30T10:34:10.202Z,241.88
2018-11-30T10:35:10.171Z,247.50
2018-11-30T10:36:10.133Z,258.75
2018-11-30T10:37:10.098Z,264.38
2018-11-30T10:38:10.065Z,281.25
2018-11-30T10:39:10.029Z,303.75
2018-11-30T10:40:09.995Z,320.63
2018-11-30T10:41:09.961Z,337.50
2018-11-30T10:42:09.927Z,360.00
2018-11-30T10:43:09.892Z,382.50
2018-11-30T10:44:09.855Z,405.00
2018-11-30T10:45:09.822Z,416.25
2018-11-30T10:46:09.788Z,427.50
2018-11-30T10:47:09.753Z,433.13
2018-11-30T10:48:09.717Z,438.75
2018-11-30T10:49:09.684Z,438.75
2018-11-30T10:50:09.651Z,444.38
2018-11-30T10:51:09.616Z,438.75
2018-11-30T10:52:09.580Z,438.75
2018-11-30T10:53:09.546Z,433.13
2018-11-30T10:54:09.513Z,427.50
2018-11-30T10:55:09.477Z,421.88
2018-11-30T10:56:09.443Z,410.63
2018-11-30T10:57:09.409Z,399.38
2018-11-30T10:58:09.376Z,388.13
2018-11-30T10:59:09.341Z,376.88
2018-11-30T11:00:09.305Z,371.25
2018-11-30T11:01:09.273Z,365.63
2018-11-30T11:02:09.239Z,348.75
2018-11-30T11:03:09.204Z,331.88
2018-11-30T11:04:09.171Z,315.00
2018-11-30T11:05:09.137Z,286.88
2018-11-30T11:06:09.103Z,275.63
2018-11-30T11:07:09.070Z,258.75
2018-11-30T11:08:09.034Z,247.50
2018-11-30T11:09:09.001Z,247.50
2018-11-30T11:10:08.965Z,241.88
2018-11-30T11:11:08.930Z,241.88
2018-11-30T11:12:08.898Z,236.25
2018-11-30T11:13:08.863Z,225.00
2018-11-30T11:14:08.829Z,213.75
2018-11-30T11:15:08.796Z,213.75
2018-11-30T11:16:08.761Z,225.00
2018-11-30T11:17:08.729Z,247.50
2018-11-30T11:18:08.731Z,264.38
2018-11-30T11:19:08.660Z,275.63
2018-11-30T11:20:08.626Z,286.88
2018-11-30T11:21:08.593Z,281.25
2018-11-30T11:22:08.558Z,275.63
2018-11-30T11:23:08.525Z,275.63
2018-11-30T11:24:08.491Z,270.00
2018-11-30T11:25:08.461Z,264.38
2018-11-30T11:26:08.425Z,258.75
2018-11-30T11:27:08.389Z,258.75
2018-11-30T11:28:08.355Z,258.75
2018-11-30T11:29:08.322Z,258.75
2018-11-30T11:30:08.289Z,264.38
2018-11-30T11:31:08.256Z,264.38
2018-11-30T11:32:08.256Z,270.00
2018-11-30T11:33:08.188Z,270.00
2018-11-30T11:34:08.154Z,286.88
2018-11-30T11:35:08.119Z,309.38
2018-11-30T11:36:08.087Z,326.25
2018-11-30T11:37:08.051Z,337.50
2018-11-30T11:38:08.019Z,343.13
2018-11-30T11:39:07.985Z,343.13
2018-11-30T11:40:07.950Z,337.50
2018-11-30T11:41:07.917Z,326.25
2018-11-30T11:42:07.884Z,320.63
2018-11-30T11:43:07.853Z,315.00
2018-11-30T11:44:07.817Z,309.38
2018-11-30T11:45:07.782Z,309.38
2018-11-30T11:46:07.750Z,315.00
2018-11-30T11:47:07.714Z,309.38
2018-11-30T11:48:07.681Z,315.00
2018-11-30T11:49:07.646Z,326.25
2018-11-30T11:50:07.615Z,331.88
2018-11-30T11:51:07.579Z,331.88
2018-11-30T11:52:07.548Z,337.50
2018-11-30T11:53:07.512Z,343.13
2018-11-30T11:54:07.478Z,348.75
2018-11-30T11:55:07.446Z,348.75
2018-11-30T11:56:07.411Z,348.75
2018-11-30T11:57:07.379Z,348.75
2018-11-30T11:58:07.348Z,343.13
2018-11-30T11:59:07.311Z,337.50
2018-11-30T12:00:07.278Z,331.88
2018-11-30T12:01:07.245Z,326.25
2018-11-30T12:02:07.210Z,326.25
2018-11-30T12:03:07.177Z,320.63
2018-11-30T12:04:07.144Z,320.63
2018-11-30T12:05:07.111Z,320.63
2018-11-30T12:06:07.076Z,315.00
2018-11-30T12:07:07.052Z,320.63
2018-11-30T12:08:07.009Z,315.00
2018-11-30T12:09:06.976Z,315.00
2018-11-30T12:10:06.943Z,309.38
2018-11-30T12:11:06.910Z,303.75
2018-11-30T12:12:06.877Z,298.13
2018-11-30T12:13:06.843Z,292.50
2018-11-30T12:14:06.809Z,292.50
2018-11-30T12:15:06.776Z,292.50
2018-11-30T12:16:06.743Z,292.50
2018-11-30T12:17:06.710Z,286.88
2018-11-30T12:18:06.676Z,275.63
2018-11-30T12:19:06.643Z,258.75
2018-11-30T12:20:06.610Z,241.88
2018-11-30T12:21:06.577Z,225.00
2018-11-30T12:22:06.543Z,213.75
2018-11-30T12:23:06.520Z,208.13
2018-11-30T12:24:06.476Z,196.88
2018-11-30T12:25:06.442Z,191.25
2018-11-30T12:26:06.424Z,180.00
2018-11-30T12:27:06.377Z,168.75
2018-11-30T12:28:06.345Z,157.50
2018-11-30T12:29:06.311Z,151.88
2018-11-30T12:30:06.278Z,146.25
2018-11-30T12:31:06.246Z,135.00
2018-11-30T12:32:06.211Z,135.00
2018-11-30T12:33:06.177Z,129.38
2018-11-30T12:34:06.144Z,129.38
2018-11-30T12:35:06.110Z,146.25
2018-11-30T12:36:06.079Z,180.00
2018-11-30T12:37:06.043Z,202.50
2018-11-30T12:38:06.009Z,236.25
2018-11-30T12:39:05.976Z,253.13
2018-11-30T12:40:05.942Z,253.13
2018-11-30T12:41:05.909Z,241.88
2018-11-30T12:42:05.877Z,219.38
2018-11-30T12:43:05.843Z,208.13
2018-11-30T12:44:05.809Z,208.13
2018-11-30T12:45:05.776Z,196.88
2018-11-30T12:46:05.742Z,185.63
2018-11-30T12:47:05.710Z,174.38
2018-11-30T12:48:05.677Z,157.50
2018-11-30T12:49:05.643Z,151.88
2018-11-30T12:50:05.610Z,146.25
2018-11-30T12:51:05.575Z,146.25
2018-11-30T12:52:05.542Z,146.25
2018-11-30T12:53:05.510Z,135.00
2018-11-30T12:54:05.476Z,129.38
2018-11-30T12:55:05.443Z,118.13
2018-11-30T12:56:05.411Z,112.50
2018-11-30T12:57:05.377Z,101.25